createdAt,value
2019-02-08T00:00:03.918Z,3.07
2019-02-08T00:02:44.885Z,3.53
2019-02-08T00:05:25.580Z,2.83
2019-02-08T00:08:05.854Z,3.60
2019-02-08T00:10:46.853Z,4.30
2019-02-08T00:13:27.997Z,3.73
2019-02-08T00:19:17.677Z,3.67
2019-02-08T00:21:58.383Z,3.63
2019-02-08T00:24:39.110Z,3.83
2019-02-08T00:27:19.311Z,2.77
2019-02-08T00:29:59.567Z,3.13
2019-02-08T00:33:00.040Z,3.17
2019-02-08T00:35:40.192Z,5.13
2019-02-08T00:38:21.274Z,6.43
2019-02-08T00:41:02.274Z,2.43
2019-02-08T00:43:43.204Z,5.27
2019-02-08T00:46:24.186Z,3.83
2019-02-08T00:49:04.592Z,3.23
2019-02-08T00:51:45.433Z,3.90
2019-02-08T00:54:26.017Z,4.43
2019-02-08T00:57:06.176Z,3.17
2019-02-08T00:59:46.445Z,2.37
2019-02-08T01:02:27.622Z,2.83
2019-02-08T01:05:08.152Z,2.20
2019-02-08T01:07:49.274Z,3.57
2019-02-08T01:10:30.097Z,3.13
2019-02-08T01:13:10.960Z,3.87
2019-02-08T01:15:51.502Z,2.40
2019-02-08T01:18:32.608Z,2.80
2019-02-08T01:21:13.500Z,2.80
2019-02-08T01:23:54.287Z,3.67
2019-02-08T01:26:34.906Z,3.77
2019-02-08T01:29:15.783Z,3.70
2019-02-08T01:31:56.093Z,2.37
2019-02-08T01:34:37.215Z,2.70
2019-02-08T01:37:18.003Z,3.93
2019-02-08T01:39:58.581Z,2.93
2019-02-08T01:42:39.697Z,4.30
2019-02-08T01:45:20.773Z,3.83
2019-02-08T01:48:01.660Z,2.30
2019-02-08T01:50:42.632Z,2.63
2019-02-08T01:53:23.180Z,2.57
2019-02-08T01:56:03.940Z,4.07
2019-02-08T01:58:44.216Z,2.13
2019-02-08T02:01:25.215Z,2.33
2019-02-08T02:04:05.733Z,3.60
2019-02-08T02:06:46.052Z,1.83
2019-02-08T02:09:26.228Z,2.00
2019-02-08T02:12:07.330Z,2.97
2019-02-08T02:14:47.940Z,3.57
2019-02-08T02:17:28.649Z,2.37
2019-02-08T02:20:09.556Z,2.70
2019-02-08T02:22:50.620Z,3.07
2019-02-08T02:25:31.586Z,3.50
2019-02-08T02:28:12.312Z,2.63
2019-02-08T02:30:52.588Z,3.43
2019-02-08T02:33:33.636Z,2.07
2019-02-08T02:36:14.817Z,4.57
2019-02-08T02:38:56.040Z,3.00
2019-02-08T02:41:36.748Z,3.37
2019-02-08T02:50:44.307Z,2.33
2019-02-08T02:53:24.845Z,2.67
2019-02-08T02:59:11.224Z,4.27
2019-02-08T03:01:51.989Z,2.67
2019-02-08T03:04:33.309Z,2.57
2019-02-08T03:07:14.252Z,3.27
2019-02-08T03:09:55.236Z,3.23
2019-02-08T03:12:36.067Z,2.37
2019-02-08T03:15:17.105Z,3.23
2019-02-08T03:17:57.827Z,2.27
2019-02-08T03:20:39.277Z,1.90
2019-02-08T03:23:20.150Z,2.67
2019-02-08T03:26:01.109Z,1.97
2019-02-08T03:28:42.435Z,3.23
2019-02-08T03:31:23.302Z,1.97
2019-02-08T03:34:04.321Z,2.70
2019-02-08T03:36:45.755Z,3.50
2019-02-08T03:39:26.385Z,2.60
2019-02-08T03:42:07.217Z,2.27
2019-02-08T03:44:47.474Z,2.33
2019-02-08T03:47:28.608Z,2.23
2019-02-08T03:50:09.453Z,2.93
2019-02-08T03:52:50.570Z,2.27
2019-02-08T03:55:31.447Z,1.90
2019-02-08T03:58:12.363Z,3.83
2019-02-08T04:00:57.126Z,2.03
2019-02-08T04:03:37.679Z,3.23
2019-02-08T04:06:18.853Z,2.87
2019-02-08T04:08:59.872Z,2.47
2019-02-08T04:11:40.989Z,2.30
2019-02-08T04:14:21.766Z,1.90
2019-02-08T04:17:02.428Z,2.73
2019-02-08T04:19:43.446Z,2.33
2019-02-08T04:22:24.265Z,3.03
2019-02-08T04:25:05.420Z,2.57
2019-02-08T04:27:46.028Z,3.17
2019-02-08T04:30:27.029Z,3.13
2019-02-08T04:33:07.785Z,3.40
2019-02-08T04:35:48.722Z,2.67
2019-02-08T04:38:29.797Z,2.37
2019-02-08T04:41:10.876Z,2.20
2019-02-08T04:43:51.960Z,2.00
2019-02-08T04:46:32.709Z,2.97
2019-02-08T04:49:12.924Z,1.87
2019-02-08T04:51:53.986Z,2.40
2019-02-08T04:54:38.481Z,2.00
2019-02-08T04:57:17.764Z,2.83
2019-02-08T04:59:58.708Z,3.00
2019-02-08T05:02:39.761Z,2.20
2019-02-08T05:05:20.682Z,3.27
2019-02-08T05:11:06.804Z,2.73
2019-02-08T05:13:47.771Z,2.27
2019-02-08T05:16:28.442Z,2.67
2019-02-08T05:19:09.476Z,2.57
2019-02-08T05:21:50.087Z,2.07
2019-02-08T05:24:31.022Z,2.97
2019-02-08T05:27:12.195Z,3.23
2019-02-08T05:29:53.006Z,2.87
2019-02-08T05:32:33.917Z,3.43
2019-02-08T05:35:14.894Z,2.77
2019-02-08T05:37:55.496Z,2.00
2019-02-08T05:40:36.661Z,2.60
2019-02-08T05:43:17.443Z,2.73
2019-02-08T05:45:58.528Z,2.63
2019-02-08T05:48:39.632Z,2.53
2019-02-08T05:51:20.508Z,2.27
2019-02-08T05:54:01.488Z,2.23
2019-02-08T05:56:42.557Z,2.83
2019-02-08T05:59:23.126Z,2.23
2019-02-08T06:02:03.722Z,1.80
2019-02-08T06:04:44.607Z,2.70
2019-02-08T06:07:25.512Z,3.03
2019-02-08T06:10:06.622Z,3.43
2019-02-08T06:12:47.772Z,2.80
2019-02-08T06:15:28.614Z,2.43
2019-02-08T06:18:09.045Z,3.77
2019-02-08T06:20:50.045Z,2.67
2019-02-08T06:23:31.080Z,2.93
2019-02-08T06:26:11.966Z,2.97
2019-02-08T06:31:58.077Z,1.70
2019-02-08T06:34:38.925Z,3.30
2019-02-08T06:37:20.108Z,2.37
2019-02-08T06:40:01.245Z,1.87
2019-02-08T06:42:42.428Z,2.33
2019-02-08T06:45:23.258Z,2.70
2019-02-08T06:48:03.401Z,2.50
2019-02-08T06:50:44.494Z,2.13
2019-02-08T06:53:25.421Z,2.80
2019-02-08T06:56:07.094Z,2.37
2019-02-08T06:58:49.316Z,1.80
2019-02-08T07:01:32.033Z,2.80
2019-02-08T07:07:09.121Z,3.57
2019-02-08T07:09:54.414Z,2.93
2019-02-08T07:12:39.752Z,2.97
2019-02-08T07:15:39.607Z,2.50
2019-02-08T07:18:25.187Z,2.23
2019-02-08T07:21:25.158Z,2.43
2019-02-08T07:24:10.194Z,2.83
2019-02-08T07:26:52.176Z,2.60
2019-02-08T07:29:34.104Z,2.50
2019-02-08T07:35:12.950Z,2.73
2019-02-08T07:37:55.318Z,1.97
2019-02-08T07:40:54.788Z,3.53
2019-02-08T07:43:54.768Z,2.63
2019-02-08T07:46:39.652Z,1.70
2019-02-08T07:49:22.441Z,2.03
2019-02-08T07:52:07.242Z,1.97
2019-02-08T07:57:57.647Z,2.43
2019-02-08T08:00:57.980Z,2.23
2019-02-08T08:06:34.918Z,2.13
2019-02-08T08:12:28.870Z,2.47
2019-02-08T08:15:13.700Z,2.00
2019-02-08T08:20:49.429Z,2.67
2019-02-08T08:26:44.280Z,1.90
2019-02-08T08:29:28.956Z,2.17
2019-02-08T08:32:11.373Z,3.57
2019-02-08T08:34:51.594Z,1.57
2019-02-08T08:37:32.604Z,1.83
2019-02-08T08:40:13.696Z,2.00
2019-02-08T08:42:54.536Z,2.90
2019-02-08T08:45:34.784Z,3.40
2019-02-08T08:48:15.847Z,2.60
2019-02-08T08:50:57.012Z,2.10
2019-02-08T09:00:01.576Z,2.23
2019-02-08T09:02:42.340Z,2.40
2019-02-08T09:05:23.340Z,2.33
2019-02-08T09:11:09.845Z,1.97
2019-02-08T09:13:50.616Z,2.03
2019-02-08T09:16:31.337Z,2.27
2019-02-08T09:25:24.820Z,2.40
2019-02-08T09:31:24.382Z,1.63
2019-02-08T09:34:05.568Z,1.87
2019-02-08T09:36:47.715Z,2.63
2019-02-08T09:39:28.872Z,1.90
2019-02-08T09:42:09.069Z,2.23
2019-02-08T09:47:58.084Z,2.93
2019-02-08T09:50:39.980Z,2.23
2019-02-08T09:56:28.670Z,2.10
2019-02-08T09:59:09.672Z,2.07
2019-02-08T10:01:49.957Z,2.00
2019-02-08T10:04:31.080Z,1.63
2019-02-08T10:10:20.844Z,2.27
2019-02-08T10:13:01.706Z,2.73
2019-02-08T10:15:42.173Z,1.83
2019-02-08T10:18:42.209Z,2.57
2019-02-08T10:21:23.244Z,2.53
2019-02-08T10:24:03.522Z,2.07
2019-02-08T10:26:44.352Z,1.63
2019-02-08T10:29:25.331Z,2.43
2019-02-08T10:32:06.452Z,2.10
2019-02-08T10:34:47.240Z,1.67
2019-02-08T10:37:28.110Z,1.87
2019-02-08T10:43:16.252Z,2.23
2019-02-08T10:45:56.520Z,2.27
2019-02-08T10:48:37.581Z,2.40
2019-02-08T10:51:18.311Z,2.50
2019-02-08T10:53:59.409Z,1.57
2019-02-08T10:56:40.260Z,1.70
2019-02-08T11:02:29.584Z,2.53
2019-02-08T11:05:11.468Z,1.80
2019-02-08T11:10:55.894Z,1.50
2019-02-08T11:13:36.119Z,2.07
2019-02-08T11:19:12.473Z,1.67
2019-02-08T11:21:52.685Z,1.50
2019-02-08T11:24:33.548Z,1.97
2019-02-08T11:30:32.880Z,1.57
2019-02-08T11:33:32.201Z,2.20
2019-02-08T11:36:12.590Z,1.73
2019-02-08T11:38:53.462Z,1.60
2019-02-08T11:41:33.727Z,1.90
2019-02-08T11:44:14.268Z,1.63
2019-02-08T11:46:55.375Z,1.90
2019-02-08T11:49:36.268Z,1.17
2019-02-08T11:52:16.813Z,1.13
2019-02-08T11:54:57.941Z,2.17
2019-02-08T11:57:38.595Z,1.73
2019-02-08T12:00:21.329Z,1.63
2019-02-08T12:06:21.720Z,1.33
2019-02-08T12:09:02.919Z,1.73
2019-02-08T12:12:02.656Z,1.50
2019-02-08T12:14:42.909Z,2.10
2019-02-08T12:17:43.326Z,1.57
2019-02-08T12:20:43.098Z,2.40
2019-02-08T12:23:24.040Z,1.73
2019-02-08T12:26:24.197Z,1.30
2019-02-08T12:29:04.688Z,2.03
2019-02-08T12:31:45.703Z,1.20
2019-02-08T12:34:26.603Z,2.40
2019-02-08T12:40:31.031Z,1.93
2019-02-08T12:43:11.663Z,1.70
2019-02-08T12:55:11.138Z,48.37
2019-02-08T12:57:52.175Z,10.97
2019-02-08T13:00:33.032Z,7.90
2019-02-08T13:06:33.568Z,6.27
2019-02-08T13:09:14.396Z,13.43
2019-02-08T13:11:53.046Z,11.90
2019-02-08T13:14:40.803Z,8.40
2019-02-08T13:20:38.092Z,15.80
2019-02-08T13:23:26.122Z,32.90
2019-02-08T13:26:13.781Z,12.70
2019-02-08T13:29:01.460Z,14.60
2019-02-08T13:31:49.131Z,14.50
2019-02-08T13:34:36.826Z,16.97
2019-02-08T13:40:31.302Z,28.33
2019-02-08T13:43:18.953Z,27.57
2019-02-08T13:46:06.633Z,18.10
2019-02-08T13:48:54.302Z,22.53
2019-02-08T13:51:41.979Z,21.73
2019-02-08T13:54:29.628Z,44.33
2019-02-08T13:57:17.571Z,28.43
2019-02-08T14:00:26.115Z,31.67
2019-02-08T14:03:13.784Z,32.87
2019-02-08T14:08:54.824Z,26.60
2019-02-08T14:11:35.464Z,34.10
2019-02-08T14:14:16.632Z,30.40
2019-02-08T14:16:57.595Z,35.63
2019-02-08T14:19:38.344Z,29.27
2019-02-08T14:22:19.200Z,35.67
2019-02-08T14:28:08.894Z,28.90
2019-02-08T14:30:49.713Z,32.27
2019-02-08T14:33:30.380Z,43.33
2019-02-08T14:36:11.100Z,35.13
2019-02-08T14:38:51.324Z,39.47
2019-02-08T14:41:32.006Z,39.80
2019-02-08T14:44:13.164Z,45.30
2019-02-08T14:46:53.996Z,36.60
2019-02-08T14:49:35.049Z,30.57
2019-02-08T14:52:15.942Z,32.73
2019-02-08T14:54:56.963Z,40.77
2019-02-08T14:57:37.976Z,34.63
2019-02-08T15:03:24.281Z,37.80
2019-02-08T15:09:23.977Z,58.63
2019-02-08T15:12:04.902Z,49.17
2019-02-08T15:14:46.019Z,52.13
2019-02-08T15:17:26.605Z,41.17
2019-02-08T15:20:07.228Z,41.10
2019-02-08T15:23:06.872Z,42.70
2019-02-08T15:29:06.903Z,37.10
2019-02-08T15:31:47.513Z,38.10
2019-02-08T15:34:28.167Z,41.73
2019-02-08T15:37:09.428Z,34.87
2019-02-08T15:39:50.400Z,37.80
2019-02-08T15:45:57.950Z,40.50
2019-02-08T15:48:38.442Z,46.77
2019-02-08T15:57:45.593Z,73.53
2019-02-08T16:00:26.289Z,84.13
2019-02-08T16:03:07.052Z,92.37
2019-02-08T16:08:52.796Z,94.60
2019-02-08T16:11:33.908Z,50.33
2019-02-08T16:14:14.052Z,58.53
2019-02-08T16:20:13.036Z,54.67
2019-02-08T16:22:53.694Z,197.30
2019-02-08T16:25:33.962Z,62.30
2019-02-08T16:31:22.328Z,87.37
2019-02-08T16:34:00.972Z,121.57
2019-02-08T16:39:37.960Z,81.80
2019-02-08T16:42:25.632Z,68.23
2019-02-08T16:45:35.921Z,67.10
2019-02-08T16:51:12.975Z,84.27
2019-02-08T16:54:00.646Z,65.80
2019-02-08T16:56:48.321Z,72.20
2019-02-08T16:59:36.333Z,123.17
2019-02-08T17:02:24.000Z,139.27
2019-02-08T17:05:33.860Z,70.43
2019-02-08T17:11:20.769Z,124.97
2019-02-08T17:14:08.453Z,85.60
2019-02-08T17:16:56.459Z,50.73
2019-02-08T17:19:44.128Z,61.83
2019-02-08T17:22:32.076Z,51.87
2019-02-08T17:25:19.822Z,45.80
2019-02-08T17:31:07.410Z,42.90
2019-02-08T17:33:48.329Z,225.13
2019-02-08T17:39:47.325Z,48.00
2019-02-08T17:42:28.741Z,53.97
2019-02-08T17:45:09.766Z,48.60
2019-02-08T17:50:53.432Z,66.57
2019-02-08T17:56:39.720Z,67.97
2019-02-08T17:59:20.730Z,52.43
2019-02-08T18:02:01.508Z,44.33
2019-02-08T18:04:42.567Z,43.77
2019-02-08T18:07:23.457Z,47.23
2019-02-08T18:10:02.172Z,38.23
2019-02-08T18:12:49.964Z,42.50
2019-02-08T18:15:37.886Z,30.43
2019-02-08T18:18:25.574Z,26.87
2019-02-08T18:21:13.240Z,34.43
2019-02-08T18:24:00.988Z,32.43
2019-02-08T18:26:49.073Z,28.13
2019-02-08T18:29:36.792Z,31.60
2019-02-08T18:32:24.464Z,26.93
2019-02-08T18:35:12.426Z,33.77
2019-02-08T18:38:00.362Z,32.57
2019-02-08T18:40:48.058Z,29.73
2019-02-08T18:43:29.284Z,28.27
2019-02-08T18:46:09.483Z,31.17
2019-02-08T18:48:49.750Z,25.20
2019-02-08T18:51:30.905Z,24.90
2019-02-08T18:54:11.815Z,24.60
2019-02-08T18:56:52.644Z,26.70
2019-02-08T18:59:33.610Z,27.03
2019-02-08T19:02:15.279Z,24.23
2019-02-08T19:04:56.018Z,23.37
2019-02-08T19:07:37.304Z,25.00
2019-02-08T19:10:18.221Z,27.23
2019-02-08T19:12:59.842Z,24.07
2019-02-08T19:15:40.914Z,23.23
2019-02-08T19:18:21.854Z,21.30
2019-02-08T19:21:02.904Z,18.50
2019-02-08T19:23:43.351Z,25.97
2019-02-08T19:26:24.409Z,18.17
2019-02-08T19:29:05.368Z,21.53
2019-02-08T19:31:46.309Z,18.03
2019-02-08T19:34:27.057Z,15.90
2019-02-08T19:37:08.005Z,16.07
2019-02-08T19:39:48.633Z,14.17
2019-02-08T19:42:29.144Z,17.10
2019-02-08T19:45:10.400Z,19.33
2019-02-08T19:47:51.589Z,14.60
2019-02-08T19:50:32.496Z,18.70
2019-02-08T19:53:13.313Z,13.90
2019-02-08T19:55:54.395Z,13.17
2019-02-08T19:58:35.273Z,14.20
2019-02-08T20:01:16.458Z,15.27
2019-02-08T20:03:56.927Z,20.57
2019-02-08T20:06:37.684Z,11.40
2019-02-08T20:09:18.417Z,13.70
2019-02-08T20:11:59.476Z,10.93
2019-02-08T20:14:40.556Z,11.97
2019-02-08T20:17:21.745Z,12.30
2019-02-08T20:20:01.933Z,9.13
2019-02-08T20:22:42.408Z,12.97
2019-02-08T20:28:42.648Z,12.10
2019-02-08T20:31:23.161Z,13.97
2019-02-08T20:34:04.257Z,12.83
2019-02-08T20:36:45.255Z,15.17
2019-02-08T20:39:26.318Z,11.20
2019-02-08T20:42:07.335Z,10.00
2019-02-08T20:44:48.216Z,12.70
2019-02-08T20:47:29.197Z,9.60
2019-02-08T20:50:10.005Z,9.23
2019-02-08T20:52:50.807Z,12.90
2019-02-08T20:55:31.004Z,11.00
2019-02-08T20:58:12.139Z,14.27
2019-02-08T21:00:53.096Z,10.17
2019-02-08T21:03:34.196Z,14.40
2019-02-08T21:06:14.560Z,13.00
2019-02-08T21:08:55.885Z,12.60
2019-02-08T21:11:36.527Z,14.43
2019-02-08T21:14:17.417Z,15.53
2019-02-08T21:16:58.302Z,17.60
2019-02-08T21:19:39.267Z,20.73
2019-02-08T21:22:17.884Z,20.33
2019-02-08T21:25:07.515Z,22.23
2019-02-08T21:27:55.409Z,24.30
2019-02-08T21:30:43.068Z,25.90
2019-02-08T21:33:30.750Z,27.40
2019-02-08T21:36:18.417Z,30.57
2019-02-08T21:42:00.192Z,35.20
2019-02-08T21:44:48.128Z,35.27
2019-02-08T21:50:22.938Z,39.00
2019-02-08T21:53:03.693Z,41.57
2019-02-08T21:55:43.862Z,43.73
2019-02-08T21:58:24.620Z,45.47
2019-02-08T22:01:05.177Z,47.13
2019-02-08T22:03:45.796Z,49.93
2019-02-08T22:06:25.962Z,50.60
2019-02-08T22:09:06.677Z,54.20
2019-02-08T22:11:47.647Z,57.30
2019-02-08T22:14:28.745Z,57.80
2019-02-08T22:17:09.326Z,59.60
2019-02-08T22:19:50.458Z,63.13
2019-02-08T22:22:31.100Z,65.10
2019-02-08T22:25:12.213Z,65.93
2019-02-08T22:27:52.881Z,68.17
2019-02-08T22:30:33.613Z,66.37
2019-02-08T22:33:13.752Z,73.37
2019-02-08T22:35:54.597Z,72.57
2019-02-08T22:38:35.024Z,77.50
2019-02-08T22:41:15.936Z,79.40
2019-02-08T22:43:56.652Z,80.17
2019-02-08T22:46:37.528Z,83.57
2019-02-08T22:49:18.471Z,91.20
2019-02-08T22:51:59.128Z,90.07
2019-02-08T22:54:39.925Z,94.43
2019-02-08T22:57:20.599Z,101.10
2019-02-08T23:00:01.557Z,102.07
2019-02-08T23:02:42.657Z,105.70
2019-02-08T23:05:23.597Z,105.43
2019-02-08T23:08:04.890Z,107.97
2019-02-08T23:10:45.835Z,112.67
2019-02-08T23:13:26.451Z,109.47
2019-02-08T23:16:07.356Z,114.03
2019-02-08T23:18:47.549Z,116.80
2019-02-08T23:21:28.347Z,118.73
2019-02-08T23:24:09.426Z,116.00
2019-02-08T23:26:50.525Z,117.63
2019-02-08T23:29:31.256Z,125.20
2019-02-08T23:32:12.092Z,120.13
2019-02-08T23:34:52.680Z,123.57
2019-02-08T23:37:33.134Z,122.90
2019-02-08T23:40:13.821Z,123.57
2019-02-08T23:42:54.566Z,126.00
2019-02-08T23:45:35.240Z,126.17
2019-02-08T23:48:16.107Z,120.60
2019-02-08T23:50:56.927Z,121.83
2019-02-08T23:53:37.708Z,125.77
2019-02-08T23:56:18.847Z,130.00
2019-02-08T23:58:59.364Z,126.13
